De Haan, Belgium
Current Conditions -  °F | °C
As of 6:20 PM on Wednesday 26 Nov 2014 (Local Time) from EBOS Reporting Station
Haze Haze  
Wind Chill:   Ceiling: 200
Heat Index:   Visibility: 0.75mi
Dew Point:   Wind: 6mph
Humidity: 100%   Direction: 140°SE
Pressure: 29.83"   Gusts: NA
Location:  51.27°N, 3.03°E
Report Text: EBOS 261720Z 14005KT 1200 R08/1700N R26/1900U BR OVC002 08/08 Q1010 TEMPO 0700 FG OVC001
Loading
Personal Weather Stations






























Interactive Weather Map New forecast layout! Learn more

10-Day Weather Forecast

Advertisements
Track Severe Weather on mobile